sensor_id;sensor_type;location;lat;lon;timestamp;pressure;altitude;pressure_sealevel;temperature;humidity
40992;BME280;29633;49.168;9.848;2023-02-01T00:01:37;97355.91;;;7.58;72.06
40992;BME280;29633;49.168;9.848;2023-02-01T00:04:03;97350.09;;;7.55;72.20
40992;BME280;29633;49.168;9.848;2023-02-01T00:06:28;97353.50;;;7.55;72.20
40992;BME280;29633;49.168;9.848;2023-02-01T00:08:54;97349.25;;;7.54;71.98
40992;BME280;29633;49.168;9.848;2023-02-01T00:11:21;97353.69;;;7.52;72.15
40992;BME280;29633;49.168;9.848;2023-02-01T00:13:47;97349.44;;;7.51;72.14
40992;BME280;29633;49.168;9.848;2023-02-01T00:16:18;97345.78;;;7.55;72.13
40992;BME280;29633;49.168;9.848;2023-02-01T00:18:45;97336.75;;;7.62;72.09
40992;BME280;29633;49.168;9.848;2023-02-01T00:21:12;97335.81;;;7.63;72.12
40992;BME280;29633;49.168;9.848;2023-02-01T00:23:38;97338.38;;;7.63;72.10
40992;BME280;29633;49.168;9.848;2023-02-01T00:26:07;97324.56;;;7.64;72.05
40992;BME280;29633;49.168;9.848;2023-02-01T00:28:36;97325.59;;;7.62;72.11
40992;BME280;29633;49.168;9.848;2023-02-01T00:31:03;97321.59;;;7.56;72.24
40992;BME280;29633;49.168;9.848;2023-02-01T00:33:30;97322.75;;;7.52;72.23
40992;BME280;29633;49.168;9.848;2023-02-01T00:36:00;97318.69;;;7.48;72.22
40992;BME280;29633;49.168;9.848;2023-02-01T00:38:27;97324.75;;;7.47;72.32
40992;BME280;29633;49.168;9.848;2023-02-01T00:40:53;97310.94;;;7.48;72.27
40992;BME280;29633;49.168;9.848;2023-02-01T00:43:19;97307.97;;;7.54;72.50
40992;BME280;29633;49.168;9.848;2023-02-01T00:45:48;97302.44;;;7.60;72.13
40992;BME280;29633;49.168;9.848;2023-02-01T00:48:13;97299.78;;;7.62;72.15
40992;BME280;29633;49.168;9.848;2023-02-01T00:50:42;97305.59;;;7.65;72.18
40992;BME280;29633;49.168;9.848;2023-02-01T00:53:09;97296.63;;;7.71;71.95
40992;BME280;29633;49.168;9.848;2023-02-01T00:55:35;97298.88;;;7.77;71.98
40992;BME280;29633;49.168;9.848;2023-02-01T00:58:00;97305.50;;;7.81;71.78
40992;BME280;29633;49.168;9.848;2023-02-01T01:00:26;97295.19;;;7.81;71.85
40992;BME280;29633;49.168;9.848;2023-02-01T01:02:52;97301.00;;;7.84;71.97
40992;BME280;29633;49.168;9.848;2023-02-01T01:05:17;97305.84;;;7.89;71.73
40992;BME280;29633;49.168;9.848;2023-02-01T01:07:43;97307.50;;;7.90;71.83
40992;BME280;29633;49.168;9.848;2023-02-01T01:10:09;97301.44;;;7.91;71.65
40992;BME280;29633;49.168;9.848;2023-02-01T01:12:35;97296.81;;;7.96;71.79
40992;BME280;29633;49.168;9.848;2023-02-01T01:15:00;97313.88;;;7.99;71.61
40992;BME280;29633;49.168;9.848;2023-02-01T01:17:26;97302.72;;;7.98;71.63
40992;BME280;29633;49.168;9.848;2023-02-01T01:19:52;97308.78;;;7.97;71.74
40992;BME280;29633;49.168;9.848;2023-02-01T01:22:17;97306.84;;;8.01;71.78
40992;BME280;29633;49.168;9.848;2023-02-01T01:24:43;97305.66;;;8.06;71.55
40992;BME280;29633;49.168;9.848;2023-02-01T01:27:09;97315.03;;;8.07;71.37
40992;BME280;29633;49.168;9.848;2023-02-01T01:29:34;97310.00;;;8.06;71.52
40992;BME280;29633;49.168;9.848;2023-02-01T01:32:00;97314.22;;;8.07;71.47
40992;BME280;29633;49.168;9.848;2023-02-01T01:34:26;97307.22;;;8.09;71.50
40992;BME280;29633;49.168;9.848;2023-02-01T01:36:51;97313.09;;;8.11;71.54
40992;BME280;29633;49.168;9.848;2023-02-01T01:39:17;97302.78;;;8.11;71.67
40992;BME280;29633;49.168;9.848;2023-02-01T01:41:42;97308.78;;;8.11;71.50
40992;BME280;29633;49.168;9.848;2023-02-01T01:47:11;97303.59;;;8.11;71.55
40992;BME280;29633;49.168;9.848;2023-02-01T01:49:37;97302.78;;;8.11;71.56
40992;BME280;29633;49.168;9.848;2023-02-01T01:52:03;97293.41;;;8.10;71.61
40992;BME280;29633;49.168;9.848;2023-02-01T01:54:38;97291.81;;;8.07;71.82
40992;BME280;29633;49.168;9.848;2023-02-01T01:57:08;97283.22;;;8.07;71.59
40992;BME280;29633;49.168;9.848;2023-02-01T01:59:35;97285.09;;;8.05;71.55
40992;BME280;29633;49.168;9.848;2023-02-01T02:02:03;97283.44;;;8.04;71.62
40992;BME280;29633;49.168;9.848;2023-02-01T02:04:30;97278.47;;;8.01;71.69
40992;BME280;29633;49.168;9.848;2023-02-01T02:07:16;97275.88;;;8.01;71.68
40992;BME280;29633;49.168;9.848;2023-02-01T02:09:43;97274.97;;;8.02;71.78
40992;BME280;29633;49.168;9.848;2023-02-01T02:12:09;97272.25;;;8.03;71.66
40992;BME280;29633;49.168;9.848;2023-02-01T02:14:35;97269.59;;;8.05;71.55
40992;BME280;29633;49.168;9.848;2023-02-01T02:17:07;97261.66;;;8.08;71.59
40992;BME280;29633;49.168;9.848;2023-02-01T02:42:24;97251.00;;;7.85;72.11
40992;BME280;29633;49.168;9.848;2023-02-01T02:48:17;97247.06;;;7.80;72.39
40992;BME280;29633;49.168;9.848;2023-02-01T02:50:53;97241.00;;;7.81;71.86
40992;BME280;29633;49.168;9.848;2023-02-01T02:54:10;97236.75;;;7.80;71.98
40992;BME280;29633;49.168;9.848;2023-02-01T02:56:56;97240.03;;;7.82;72.09
40992;BME280;29633;49.168;9.848;2023-02-01T02:59:43;97227.78;;;7.85;71.95
40992;BME280;29633;49.168;9.848;2023-02-01T03:02:28;97224.19;;;7.88;72.14
40992;BME280;29633;49.168;9.848;2023-02-01T03:05:13;97221.13;;;7.96;71.93
40992;BME280;29633;49.168;9.848;2023-02-01T03:07:46;97227.75;;;8.00;71.93
40992;BME280;29633;49.168;9.848;2023-02-01T03:10:32;97216.63;;;7.99;71.81
40992;BME280;29633;49.168;9.848;2023-02-01T03:13:02;97213.19;;;7.99;71.65
40992;BME280;29633;49.168;9.848;2023-02-01T03:15:39;97206.16;;;8.01;71.91
40992;BME280;29633;49.168;9.848;2023-02-01T03:18:15;97195.13;;;7.99;71.83
40992;BME280;29633;49.168;9.848;2023-02-01T03:20:44;97187.25;;;8.00;71.76
40992;BME280;29633;49.168;9.848;2023-02-01T03:23:12;97194.94;;;8.02;71.79
40992;BME280;29633;49.168;9.848;2023-02-01T03:25:39;97187.81;;;8.05;71.80
40992;BME280;29633;49.168;9.848;2023-02-01T03:28:07;97194.00;;;8.03;71.97
40992;BME280;29633;49.168;9.848;2023-02-01T03:30:38;97205.25;;;8.02;71.87
40992;BME280;29633;49.168;9.848;2023-02-01T03:33:10;97198.22;;;8.04;71.79
40992;BME280;29633;49.168;9.848;2023-02-01T03:36:10;97201.66;;;8.04;71.62
40992;BME280;29633;49.168;9.848;2023-02-01T03:39:02;97201.56;;;8.06;72.00
40992;BME280;29633;49.168;9.848;2023-02-01T03:46:54;97218.41;;;8.11;71.81
40992;BME280;29633;49.168;9.848;2023-02-01T03:49:28;97210.03;;;8.08;71.71
40992;BME280;29633;49.168;9.848;2023-02-01T03:51:54;97204.03;;;8.07;71.96
40992;BME280;29633;49.168;9.848;2023-02-01T03:54:21;97210.22;;;8.05;71.80
40992;BME280;29633;49.168;9.848;2023-02-01T03:56:47;97206.53;;;8.09;72.09
40992;BME280;29633;49.168;9.848;2023-02-01T03:59:13;97198.50;;;8.13;71.90
40992;BME280;29633;49.168;9.848;2023-02-01T04:01:40;97206.13;;;8.15;71.80
40992;BME280;29633;49.168;9.848;2023-02-01T04:04:06;97198.09;;;8.19;71.65
40992;BME280;29633;49.168;9.848;2023-02-01T04:06:32;97210.16;;;8.19;71.75
40992;BME280;29633;49.168;9.848;2023-02-01T04:08:57;97191.47;;;8.15;71.80
40992;BME280;29633;49.168;9.848;2023-02-01T04:11:23;97202.91;;;8.11;71.85
40992;BME280;29633;49.168;9.848;2023-02-01T04:13:48;97197.31;;;8.05;71.95
40992;BME280;29633;49.168;9.848;2023-02-01T04:16:14;97190.69;;;8.01;72.07
40992;BME280;29633;49.168;9.848;2023-02-01T04:18:40;97183.84;;;8.00;71.97
40992;BME280;29633;49.168;9.848;2023-02-01T04:21:05;97189.13;;;7.98;72.02
40992;BME280;29633;49.168;9.848;2023-02-01T04:23:31;97194.38;;;7.97;72.10
40992;BME280;29633;49.168;9.848;2023-02-01T04:26:01;97188.28;;;7.98;71.96
40992;BME280;29633;49.168;9.848;2023-02-01T04:28:28;97194.38;;;7.97;72.13
40992;BME280;29633;49.168;9.848;2023-02-01T04:30:54;97189.41;;;7.93;72.18
40992;BME280;29633;49.168;9.848;2023-02-01T04:33:19;97194.56;;;7.93;72.29
40992;BME280;29633;49.168;9.848;2023-02-01T04:35:45;97193.66;;;7.95;72.28
40992;BME280;29633;49.168;9.848;2023-02-01T04:38:11;97182.09;;;8.00;72.35
40992;BME280;29633;49.168;9.848;2023-02-01T04:40:36;97178.69;;;8.00;72.20
40992;BME280;29633;49.168;9.848;2023-02-01T04:43:05;97179.53;;;8.00;72.12
40992;BME280;29633;49.168;9.848;2023-02-01T04:45:31;97174.47;;;7.99;72.05
40992;BME280;29633;49.168;9.848;2023-02-01T04:47:56;97184.16;;;7.95;72.25
40992;BME280;29633;49.168;9.848;2023-02-01T04:50:22;97180.84;;;7.93;72.41
40992;BME280;29633;49.168;9.848;2023-02-01T04:52:49;97183.72;;;7.88;72.35
40992;BME280;29633;49.168;9.848;2023-02-01T04:55:14;97182.97;;;7.86;72.53
40992;BME280;29633;49.168;9.848;2023-02-01T04:57:40;97171.94;;;7.84;72.61
40992;BME280;29633;49.168;9.848;2023-02-01T05:00:08;97166.78;;;7.84;72.53
40992;BME280;29633;49.168;9.848;2023-02-01T05:02:34;97156.63;;;7.81;72.58
40992;BME280;29633;49.168;9.848;2023-02-01T05:05:00;97150.94;;;7.76;72.71
40992;BME280;29633;49.168;9.848;2023-02-01T05:07:26;97150.19;;;7.74;72.70
40992;BME280;29633;49.168;9.848;2023-02-01T05:09:52;97162.38;;;7.72;72.65
40992;BME280;29633;49.168;9.848;2023-02-01T05:12:17;97169.19;;;7.73;72.58
40992;BME280;29633;49.168;9.848;2023-02-01T05:15:02;97167.75;;;7.69;72.91
40992;BME280;29633;49.168;9.848;2023-02-01T05:17:27;97160.28;;;7.65;73.09
40992;BME280;29633;49.168;9.848;2023-02-01T05:19:53;97157.13;;;7.60;72.96
40992;BME280;29633;49.168;9.848;2023-02-01T05:22:18;97161.50;;;7.59;73.12
40992;BME280;29633;49.168;9.848;2023-02-01T05:24:44;97163.13;;;7.60;72.96
40992;BME280;29633;49.168;9.848;2023-02-01T05:27:10;97169.75;;;7.64;72.99
40992;BME280;29633;49.168;9.848;2023-02-01T05:29:35;97164.41;;;7.67;72.93
40992;BME280;29633;49.168;9.848;2023-02-01T05:32:01;97158.13;;;7.71;72.95
40992;BME280;29633;49.168;9.848;2023-02-01T05:34:27;97157.13;;;7.74;72.80
40992;BME280;29633;49.168;9.848;2023-02-01T05:36:52;97156.38;;;7.72;72.81
40992;BME280;29633;49.168;9.848;2023-02-01T05:39:18;97163.28;;;7.71;72.89
40992;BME280;29633;49.168;9.848;2023-02-01T05:41:44;97159.81;;;7.72;72.87
40992;BME280;29633;49.168;9.848;2023-02-01T05:44:10;97160.72;;;7.71;72.86
40992;BME280;29633;49.168;9.848;2023-02-01T05:46:36;97152.13;;;7.71;73.00
40992;BME280;29633;49.168;9.848;2023-02-01T05:49:02;97157.03;;;7.75;72.83
40992;BME280;29633;49.168;9.848;2023-02-01T05:51:28;97174.16;;;7.76;72.90
40992;BME280;29633;49.168;9.848;2023-02-01T05:53:54;97175.00;;;7.77;72.89
40992;BME280;29633;49.168;9.848;2023-02-01T05:56:19;97180.16;;;7.77;72.75
40992;BME280;29633;49.168;9.848;2023-02-01T05:58:45;97187.78;;;7.78;72.98
40992;BME280;29633;49.168;9.848;2023-02-01T06:01:11;97176.47;;;7.81;72.71
40992;BME280;29633;49.168;9.848;2023-02-01T06:03:36;97174.59;;;7.83;72.71
40992;BME280;29633;49.168;9.848;2023-02-01T06:06:02;97167.97;;;7.79;72.77
40992;BME280;29633;49.168;9.848;2023-02-01T06:08:29;97162.28;;;7.74;72.90
40992;BME280;29633;49.168;9.848;2023-02-01T06:11:04;97159.88;;;7.71;73.13
40992;BME280;29633;49.168;9.848;2023-02-01T06:13:30;97157.41;;;7.69;73.06
40992;BME280;29633;49.168;9.848;2023-02-01T06:15:56;97148.84;;;7.69;73.13
40992;BME280;29633;49.168;9.848;2023-02-01T06:18:23;97150.50;;;7.70;73.08
40992;BME280;29633;49.168;9.848;2023-02-01T06:20:56;97150.31;;;7.73;73.04
40992;BME280;29633;49.168;9.848;2023-02-01T06:23:22;97148.56;;;7.73;72.93
40992;BME280;29633;49.168;9.848;2023-02-01T06:26:03;97143.19;;;7.76;73.20
40992;BME280;29633;49.168;9.848;2023-02-01T06:28:30;97142.81;;;7.82;72.67
40992;BME280;29633;49.168;9.848;2023-02-01T06:30:56;97155.50;;;7.85;72.77
40992;BME280;29633;49.168;9.848;2023-02-01T06:33:26;97149.50;;;7.85;72.69
40992;BME280;29633;49.168;9.848;2023-02-01T06:35:58;97149.63;;;7.83;72.63
40992;BME280;29633;49.168;9.848;2023-02-01T06:38:25;97155.00;;;7.80;72.81
40992;BME280;29633;49.168;9.848;2023-02-01T06:40:52;97150.75;;;7.79;72.84
40992;BME280;29633;49.168;9.848;2023-02-01T06:43:18;97164.56;;;7.78;72.91
40992;BME280;29633;49.168;9.848;2023-02-01T06:45:44;97161.91;;;7.80;72.79
40992;BME280;29633;49.168;9.848;2023-02-01T06:48:09;97163.56;;;7.81;72.76
40992;BME280;29633;49.168;9.848;2023-02-01T06:50:35;97172.75;;;7.85;72.85
40992;BME280;29633;49.168;9.848;2023-02-01T06:53:01;97167.56;;;7.85;72.90
40992;BME280;29633;49.168;9.848;2023-02-01T06:55:26;97159.84;;;7.85;72.87
40992;BME280;29633;49.168;9.848;2023-02-01T06:57:55;97163.25;;;7.85;72.78
40992;BME280;29633;49.168;9.848;2023-02-01T07:00:22;97179.56;;;7.86;72.95
40992;BME280;29633;49.168;9.848;2023-02-01T07:02:48;97176.16;;;7.85;72.68
40992;BME280;29633;49.168;9.848;2023-02-01T07:05:14;97187.44;;;7.84;72.86
40992;BME280;29633;49.168;9.848;2023-02-01T07:07:40;97173.97;;;7.79;72.92
40992;BME280;29633;49.168;9.848;2023-02-01T07:10:06;97181.91;;;7.76;73.01
40992;BME280;29633;49.168;9.848;2023-02-01T07:12:31;97186.25;;;7.76;73.17
40992;BME280;29633;49.168;9.848;2023-02-01T07:14:57;97202.56;;;7.76;72.77
40992;BME280;29633;49.168;9.848;2023-02-01T07:17:23;97204.94;;;7.79;73.10
40992;BME280;29633;49.168;9.848;2023-02-01T07:19:48;97205.84;;;7.78;72.95
40992;BME280;29633;49.168;9.848;2023-02-01T07:22:17;97214.53;;;7.77;73.13
40992;BME280;29633;49.168;9.848;2023-02-01T07:24:42;97216.38;;;7.75;73.16
40992;BME280;29633;49.168;9.848;2023-02-01T07:27:08;97212.88;;;7.76;72.92
40992;BME280;29633;49.168;9.848;2023-02-01T07:29:34;97200.81;;;7.77;72.99
40992;BME280;29633;49.168;9.848;2023-02-01T07:31:59;97203.28;;;7.78;72.99
40992;BME280;29633;49.168;9.848;2023-02-01T07:34:26;97211.56;;;7.83;72.95
40992;BME280;29633;49.168;9.848;2023-02-01T07:36:52;97215.63;;;7.87;72.97
40992;BME280;29633;49.168;9.848;2023-02-01T07:39:18;97207.03;;;7.87;72.97
40992;BME280;29633;49.168;9.848;2023-02-01T07:41:43;97205.50;;;7.84;73.04
40992;BME280;29633;49.168;9.848;2023-02-01T07:44:09;97205.38;;;7.86;72.89
40992;BME280;29633;49.168;9.848;2023-02-01T07:46:35;97198.56;;;7.85;72.80
40992;BME280;29633;49.168;9.848;2023-02-01T07:49:01;97204.75;;;7.82;72.88
40992;BME280;29633;49.168;9.848;2023-02-01T07:51:27;97226.84;;;7.86;73.07
40992;BME280;29633;49.168;9.848;2023-02-01T07:53:52;97218.41;;;7.84;73.00
40992;BME280;29633;49.168;9.848;2023-02-01T07:56:19;97215.91;;;7.83;73.10
40992;BME280;29633;49.168;9.848;2023-02-01T07:58:49;97212.41;;;7.84;73.09
40992;BME280;29633;49.168;9.848;2023-02-01T08:01:17;97213.13;;;7.86;73.16
40992;BME280;29633;49.168;9.848;2023-02-01T08:03:54;97213.03;;;7.87;72.96
40992;BME280;29633;49.168;9.848;2023-02-01T08:06:21;97220.59;;;7.90;73.01
40992;BME280;29633;49.168;9.848;2023-02-01T08:08:50;97215.03;;;7.97;72.90
40992;BME280;29633;49.168;9.848;2023-02-01T08:11:16;97215.78;;;7.99;72.79
40992;BME280;29633;49.168;9.848;2023-02-01T08:13:42;97204.34;;;8.03;72.83
40992;BME280;29633;49.168;9.848;2023-02-01T08:16:09;97209.19;;;8.07;72.71
40992;BME280;29633;49.168;9.848;2023-02-01T08:18:36;97215.72;;;8.13;72.75
40992;BME280;29633;49.168;9.848;2023-02-01T08:21:09;97211.28;;;8.15;72.67
40992;BME280;29633;49.168;9.848;2023-02-01T08:23:36;97202.63;;;8.16;72.60
40992;BME280;29633;49.168;9.848;2023-02-01T08:26:11;97197.16;;;8.20;72.50
40992;BME280;29633;49.168;9.848;2023-02-01T08:28:38;97201.31;;;8.23;72.52
40992;BME280;29633;49.168;9.848;2023-02-01T08:31:09;97209.75;;;8.25;72.43
40992;BME280;29633;49.168;9.848;2023-02-01T08:33:35;97217.34;;;8.28;72.44
40992;BME280;29633;49.168;9.848;2023-02-01T08:36:03;97223.81;;;8.35;72.38
40992;BME280;29633;49.168;9.848;2023-02-01T08:38:29;97231.56;;;8.35;72.60
40992;BME280;29633;49.168;9.848;2023-02-01T08:40:55;97235.97;;;8.33;72.39
40992;BME280;29633;49.168;9.848;2023-02-01T08:43:20;97238.00;;;8.28;72.52
40992;BME280;29633;49.168;9.848;2023-02-01T08:45:46;97246.66;;;8.27;72.51
40992;BME280;29633;49.168;9.848;2023-02-01T08:48:12;97233.38;;;8.33;72.57
40992;BME280;29633;49.168;9.848;2023-02-01T08:50:37;97245.13;;;8.51;72.28
40992;BME280;29633;49.168;9.848;2023-02-01T08:53:03;97238.84;;;8.55;71.95
40992;BME280;29633;49.168;9.848;2023-02-01T08:55:28;97240.38;;;8.58;71.94
40992;BME280;29633;49.168;9.848;2023-02-01T08:57:54;97240.00;;;8.64;71.90
40992;BME280;29633;49.168;9.848;2023-02-01T09:00:21;97244.09;;;8.54;71.96
40992;BME280;29633;49.168;9.848;2023-02-01T09:02:46;97236.53;;;8.51;72.08
40992;BME280;29633;49.168;9.848;2023-02-01T09:05:12;97242.03;;;8.46;72.21
40992;BME280;29633;49.168;9.848;2023-02-01T09:07:39;97256.06;;;8.42;72.32
40992;BME280;29633;49.168;9.848;2023-02-01T09:10:05;97248.69;;;8.36;72.31
40992;BME280;29633;49.168;9.848;2023-02-01T09:12:32;97241.25;;;8.31;72.49
40992;BME280;29633;49.168;9.848;2023-02-01T09:14:58;97251.00;;;8.26;72.65
40992;BME280;29633;49.168;9.848;2023-02-01T09:17:25;97242.34;;;8.27;72.61
40992;BME280;29633;49.168;9.848;2023-02-01T09:19:51;97242.16;;;8.30;72.64
40992;BME280;29633;49.168;9.848;2023-02-01T09:22:17;97245.66;;;8.29;72.69
40992;BME280;29633;49.168;9.848;2023-02-01T09:24:43;97251.19;;;8.23;72.72
40992;BME280;29633;49.168;9.848;2023-02-01T09:27:08;97255.94;;;8.17;72.54
40992;BME280;29633;49.168;9.848;2023-02-01T09:29:34;97257.78;;;8.15;72.79
40992;BME280;29633;49.168;9.848;2023-02-01T09:32:00;97263.25;;;8.10;72.75
40992;BME280;29633;49.168;9.848;2023-02-01T09:34:25;97277.91;;;8.10;72.76
40992;BME280;29633;49.168;9.848;2023-02-01T09:36:51;97268.56;;;8.07;72.88
40992;BME280;29633;49.168;9.848;2023-02-01T09:39:16;97272.19;;;8.05;72.92
40992;BME280;29633;49.168;9.848;2023-02-01T09:42:24;97269.88;;;8.00;72.86
40992;BME280;29633;49.168;9.848;2023-02-01T09:47:32;97275.88;;;8.01;72.74
40992;BME280;29633;49.168;9.848;2023-02-01T09:50:38;97267.75;;;8.07;72.81
40992;BME280;29633;49.168;9.848;2023-02-01T09:53:06;97270.59;;;8.16;72.82
40992;BME280;29633;49.168;9.848;2023-02-01T09:55:47;97271.44;;;8.17;72.72
40992;BME280;29633;49.168;9.848;2023-02-01T10:00:57;97271.31;;;8.18;72.84
40992;BME280;29633;49.168;9.848;2023-02-01T10:03:24;97271.03;;;8.23;72.52
40992;BME280;29633;49.168;9.848;2023-02-01T10:17:17;97291.06;;;8.33;72.65
40992;BME280;29633;49.168;9.848;2023-02-01T10:22:42;97314.94;;;8.37;72.54
40992;BME280;29633;49.168;9.848;2023-02-01T10:25:26;97308.22;;;8.34;72.53
40992;BME280;29633;49.168;9.848;2023-02-01T10:27:53;97316.78;;;8.35;72.43
40992;BME280;29633;49.168;9.848;2023-02-01T10:32:46;97321.56;;;8.41;72.51
40992;BME280;29633;49.168;9.848;2023-02-01T10:35:16;97318.06;;;8.42;72.39
40992;BME280;29633;49.168;9.848;2023-02-01T10:37:43;97309.19;;;8.46;72.41
40992;BME280;29633;49.168;9.848;2023-02-01T10:42:38;97319.69;;;8.43;72.50
40992;BME280;29633;49.168;9.848;2023-02-01T10:45:05;97306.91;;;8.42;72.53
40992;BME280;29633;49.168;9.848;2023-02-01T10:47:31;97318.06;;;8.42;72.57
40992;BME280;29633;49.168;9.848;2023-02-01T10:50:45;97318.06;;;8.42;72.37
40992;BME280;29633;49.168;9.848;2023-02-01T10:52:48;97323.22;;;8.42;72.71
40992;BME280;29633;49.168;9.848;2023-02-01T10:57:59;97335.19;;;8.43;72.42
40992;BME280;29633;49.168;9.848;2023-02-01T11:00:25;97318.16;;;8.40;72.33
40992;BME280;29633;49.168;9.848;2023-02-01T11:02:52;97317.72;;;8.34;72.49
40992;BME280;29633;49.168;9.848;2023-02-01T11:05:18;97322.13;;;8.32;72.53
40992;BME280;29633;49.168;9.848;2023-02-01T11:07:53;97329.53;;;8.24;72.69
40992;BME280;29633;49.168;9.848;2023-02-01T11:10:40;97312.56;;;8.20;72.66
40992;BME280;29633;49.168;9.848;2023-02-01T11:13:15;97298.38;;;8.13;72.58
40992;BME280;29633;49.168;9.848;2023-02-01T11:15:45;97296.81;;;8.10;72.78
40992;BME280;29633;49.168;9.848;2023-02-01T11:18:26;97290.69;;;8.11;72.69
40992;BME280;29633;49.168;9.848;2023-02-01T11:20:52;97292.38;;;8.12;72.67
40992;BME280;29633;49.168;9.848;2023-02-01T11:23:24;97288.94;;;8.12;72.79
40992;BME280;29633;49.168;9.848;2023-02-01T11:29:04;97293.28;;;8.11;72.69
40992;BME280;29633;49.168;9.848;2023-02-01T11:31:33;97288.03;;;8.13;72.53
40992;BME280;29633;49.168;9.848;2023-02-01T11:34:06;97283.50;;;8.16;72.57
40992;BME280;29633;49.168;9.848;2023-02-01T11:36:33;97285.06;;;8.19;72.41
40992;BME280;29633;49.168;9.848;2023-02-01T11:41:33;97271.59;;;8.28;72.22
40992;BME280;29633;49.168;9.848;2023-02-01T11:44:02;97261.91;;;8.31;72.16
40992;BME280;29633;49.168;9.848;2023-02-01T11:46:41;97259.84;;;8.36;72.03
40992;BME280;29633;49.168;9.848;2023-02-01T11:49:21;97263.91;;;8.40;71.99
40992;BME280;29633;49.168;9.848;2023-02-01T11:54:37;97264.13;;;8.50;71.86
40992;BME280;29633;49.168;9.848;2023-02-01T12:07:40;97252.66;;;8.42;71.71
40992;BME280;29633;49.168;9.848;2023-02-01T12:13:12;97236.81;;;8.33;71.74
40992;BME280;29633;49.168;9.848;2023-02-01T12:15:46;97243.44;;;8.37;72.04
40992;BME280;29633;49.168;9.848;2023-02-01T12:30:10;97229.41;;;8.42;71.65
40992;BME280;29633;49.168;9.848;2023-02-01T12:46:38;97246.31;;;8.33;71.79
40992;BME280;29633;49.168;9.848;2023-02-01T12:49:10;97240.50;;;8.29;71.88
40992;BME280;29633;49.168;9.848;2023-02-01T12:51:40;97228.69;;;8.25;71.86
40992;BME280;29633;49.168;9.848;2023-02-01T12:54:12;97228.88;;;8.22;71.94
40992;BME280;29633;49.168;9.848;2023-02-01T12:56:52;97224.94;;;8.17;72.08
40992;BME280;29633;49.168;9.848;2023-02-01T13:01:58;97218.75;;;8.19;72.14
40992;BME280;29633;49.168;9.848;2023-02-01T13:04:33;97216.59;;;8.26;71.79
40992;BME280;29633;49.168;9.848;2023-02-01T13:07:19;97213.84;;;8.29;71.87
40992;BME280;29633;49.168;9.848;2023-02-01T13:09:57;97217.19;;;8.31;71.80
40992;BME280;29633;49.168;9.848;2023-02-01T13:12:47;97200.94;;;8.29;71.67
40992;BME280;29633;49.168;9.848;2023-02-01T13:15:24;97216.72;;;8.24;71.91
40992;BME280;29633;49.168;9.848;2023-02-01T13:17:51;97209.13;;;8.21;71.89
40992;BME280;29633;49.168;9.848;2023-02-01T13:20:46;97212.56;;;8.22;71.80
40992;BME280;29633;49.168;9.848;2023-02-01T13:23:21;97209.69;;;8.26;71.75
40992;BME280;29633;49.168;9.848;2023-02-01T13:25:52;97204.44;;;8.28;71.91
40992;BME280;29633;49.168;9.848;2023-02-01T13:31:23;97205.34;;;8.27;71.79
40992;BME280;29633;49.168;9.848;2023-02-01T13:37:04;97211.34;;;8.27;71.95
40992;BME280;29633;49.168;9.848;2023-02-01T13:42:27;97198.53;;;8.26;71.78
40992;BME280;29633;49.168;9.848;2023-02-01T13:45:05;97201.84;;;8.28;71.63
40992;BME280;29633;49.168;9.848;2023-02-01T13:47:43;97205.44;;;8.25;71.75
40992;BME280;29633;49.168;9.848;2023-02-01T13:50:30;97196.78;;;8.26;71.65
40992;BME280;29633;49.168;9.848;2023-02-01T13:53:00;97188.03;;;8.29;71.64
40992;BME280;29633;49.168;9.848;2023-02-01T13:57:59;97182.84;;;8.29;71.67
40992;BME280;29633;49.168;9.848;2023-02-01T14:00:28;97177.69;;;8.29;71.57
40992;BME280;29633;49.168;9.848;2023-02-01T14:10:59;97184.06;;;8.23;71.60
40992;BME280;29633;49.168;9.848;2023-02-01T14:24:23;97191.88;;;8.22;71.48
40992;BME280;29633;49.168;9.848;2023-02-01T14:26:51;97191.25;;;8.18;71.55
40992;BME280;29633;49.168;9.848;2023-02-01T14:29:31;97196.53;;;8.17;71.56
40992;BME280;29633;49.168;9.848;2023-02-01T14:32:16;97199.75;;;8.20;71.51
40992;BME280;29633;49.168;9.848;2023-02-01T14:42:31;97201.50;;;8.20;71.45
40992;BME280;29633;49.168;9.848;2023-02-01T14:47:42;97214.41;;;8.20;71.50
40992;BME280;29633;49.168;9.848;2023-02-01T14:50:17;97208.41;;;8.19;71.33
40992;BME280;29633;49.168;9.848;2023-02-01T14:53:10;97225.47;;;8.22;71.19
40992;BME280;29633;49.168;9.848;2023-02-01T14:58:47;97222.38;;;8.17;71.30
40992;BME280;29633;49.168;9.848;2023-02-01T15:03:57;97226.50;;;8.19;71.47
40992;BME280;29633;49.168;9.848;2023-02-01T15:06:39;97223.09;;;8.19;71.31
40992;BME280;29633;49.168;9.848;2023-02-01T15:14:22;97226.78;;;8.15;71.50
40992;BME280;29633;49.168;9.848;2023-02-01T15:16:48;97226.06;;;8.13;71.38
40992;BME280;29633;49.168;9.848;2023-02-01T15:19:26;97218.19;;;8.14;71.44
40992;BME280;29633;49.168;9.848;2023-02-01T15:21:55;97212.13;;;8.15;71.39
40992;BME280;29633;49.168;9.848;2023-02-01T15:24:25;97207.16;;;8.12;71.33
40992;BME280;29633;49.168;9.848;2023-02-01T15:26:53;97204.66;;;8.11;71.59
40992;BME280;29633;49.168;9.848;2023-02-01T15:29:20;97208.06;;;8.11;71.16
40992;BME280;29633;49.168;9.848;2023-02-01T15:31:51;97199.50;;;8.11;71.44
40992;BME280;29633;49.168;9.848;2023-02-01T15:34:17;97203.75;;;8.12;71.31
40992;BME280;29633;49.168;9.848;2023-02-01T15:36:43;97203.47;;;8.16;71.31
40992;BME280;29633;49.168;9.848;2023-02-01T15:39:23;97218.94;;;8.16;71.33
40992;BME280;29633;49.168;9.848;2023-02-01T15:41:53;97220.78;;;8.14;71.24
40992;BME280;29633;49.168;9.848;2023-02-01T15:44:43;97214.97;;;8.11;71.28
40992;BME280;29633;49.168;9.848;2023-02-01T15:47:24;97209.75;;;8.12;71.42
40992;BME280;29633;49.168;9.848;2023-02-01T15:49:52;97207.88;;;8.14;71.14
40992;BME280;29633;49.168;9.848;2023-02-01T15:55:00;97209.25;;;8.20;70.91
40992;BME280;29633;49.168;9.848;2023-02-01T15:57:35;97216.44;;;8.15;71.06
40992;BME280;29633;49.168;9.848;2023-02-01T16:00:22;97223.38;;;8.14;71.34
40992;BME280;29633;49.168;9.848;2023-02-01T16:03:00;97211.50;;;8.12;71.28
40992;BME280;29633;49.168;9.848;2023-02-01T16:05:35;97220.97;;;8.11;71.29
40992;BME280;29633;49.168;9.848;2023-02-01T16:08:14;97225.31;;;8.11;71.24
40992;BME280;29633;49.168;9.848;2023-02-01T16:10:42;97223.47;;;8.13;71.36